Terminal Aerodrome Forecast
Issued by NWS Twin Cities, MN

Home | Current Version | Previous Version | Text Only | Print | Product List | Glossary On
Versions: 1 2 3 4 5 6 7 8 9 10 11 12
000
FTUS43 KMPX 190520
TAFEAU
TAF
KEAU 190520Z 1906/2006 01005KT P6SM SCT025 OVC050
     FM190900 02010KT P6SM VCSH OVC015
     FM191500 04011G17KT 2SM -SN BR OVC015
     FM192300 03009KT 5SM -FZDZSN OVC015=

USA.gov is the U.S. government's official web portal to all federal, state and local government web resources and services.